Data for 06/01/2015

Time Sea-Level Adjusted Pressure Absolute Pressure Temperature Relative Humidity Dew Point   
(mb) (inHg) (mb) (inHg) (C) (F) (%) (C) (F)
00:05 1017 30.03 847 25.01 14.2 57.5 62 7.1 44.7
00:10 1018 30.06 847 25.01 14.2 57.5 62 7 44.7
00:15 1018 30.06 847 25.01 14 57.3 64 7.4 45.4
00:20 1018 30.06 847 25.01 13.8 56.8 66 7.5 45.5
00:25 1018 30.06 847 25.01 13.6 56.6 68 7.9 46.3
00:30 1018 30.06 847 25.01 13.7 56.6 70 8.3 46.9
00:35 1018 30.06 847 25.01 13.6 56.6 70 8.3 46.9
00:40 1018 30.06 847 25.01 13.5 56.3 71 8.3 46.9
00:45 1018 30.06 847 25.01 13.4 56.1 71 8.3 47
00:50 1018 30.06 847 25.01 13.3 55.9 72 8.3 47
00:55 1018 30.06 847 25.01 13.2 55.8 72 8.4 47.1
01:00 1017 30.03 847 25.01 13.2 55.8 72 8.4 47
01:05 1018 30.06 847 25.01 13.2 55.7 72 8.2 46.8
01:10 1018 30.06 847 25.01 13.3 56 70 7.9 46.3
01:15 1018 30.06 847 25.01 13.4 56.1 70 8.1 46.6
01:20 1017 30.03 847 25.01 13.2 55.7 71 8.1 46.7
01:25 1017 30.03 847 25.01 13 55.3 68 7.2 44.9
01:30 1017 30.03 847 25.01 13 55.4 67 7.2 44.9
01:35 1017 30.03 846 24.98 12.9 55.2 68 7.2 45
01:40 1017 30.03 846 24.98 12.6 54.7 68 7 44.6
01:45 1017 30.03 846 24.98 12.5 54.5 67 6.6 43.9
01:50 1017 30.03 846 24.98 12.7 54.8 66 6.4 43.6
01:55 1017 30.03 846 24.98 12.7 54.9 65 6.3 43.4
02:00 1017 30.03 846 24.98 12.9 55.2 64 6.2 43.2
02:05 1017 30.03 846 24.98 13.1 55.5 63 6.2 43.2
02:10 1017 30.03 846 24.98 13.1 55.6 63 6.2 43.1
02:15 1017 30.03 846 24.98 13.2 55.7 63 6.3 43.3
02:20 1017 30.03 846 24.98 13.2 55.8 62 6.1 43
02:25 1017 30.03 846 24.98 13.5 56.2 61 6.1 43
02:30 1017 30.03 846 24.98 13.6 56.4 62 6.6 43.8
02:35 1017 30.03 846 24.98 13.5 56.3 63 6.6 43.9
02:40 1016 30 846 24.98 13.4 56.1 63 6.6 43.9
02:45 1017 30.03 846 24.98 13.4 56.2 63 6.5 43.7
02:50 1017 30.03 846 24.98 13.5 56.3 62 6.4 43.4
02:55 1017 30.03 846 24.98 13.6 56.4 62 6.4 43.5
03:00 1017 30.03 846 24.98 13.6 56.4 61 6.2 43.1
03:05 1016 30 846 24.98 13.6 56.4 61 6.3 43.4
03:10 1017 30.03 846 24.98 13.5 56.3 61 6.2 43.2
03:15 1017 30.03 846 24.98 13.5 56.3 62 6.3 43.4
03:20 1017 30.03 846 24.98 13.3 55.9 63 6.4 43.6
03:25 1017 30.03 846 24.98 13.2 55.7 62 6.2 43.2
03:30 1017 30.03 846 24.98 13.2 55.7 63 6.3 43.3
03:35 1016 30 846 24.98 13.3 56 61 6 42.8
03:40 1016 30 846 24.98 13.4 56.1 60 5.9 42.6
03:45 1016 30 846 24.98 13.3 55.9 61 6 42.9
03:50 1016 30 846 24.98 13.1 55.5 61 5.8 42.5
03:55 1016 30 845 24.95 13 55.3 62 5.9 42.7
04:00 1016 30 845 24.95 12.8 55 62 5.8 42.4
04:05 1016 30 845 24.95 12.8 55 63 5.9 42.6
04:10 1016 30 845 24.95 12.7 54.9 62 5.6 42
04:15 1016 30 845 24.95 12.9 55.2 61 5.5 41.9
04:20 1016 30 845 24.95 13.1 55.5 60 5.4 41.8
04:25 1016 30 845 24.95 13.1 55.5 60 5.6 42
04:30 1016 30 845 24.95 13.2 55.7 60 5.6 42.1
04:35 1016 30 845 24.95 13.1 55.6 60 5.6 42
04:40 1016 30 845 24.95 13.3 56 58 5.4 41.8
04:45 1016 30 845 24.95 13.5 56.3 58 5.5 41.9
04:50 1016 30 845 24.95 13.6 56.4 57 5.4 41.7
04:55 1016 30 845 24.95 13.8 56.9 57 5.5 42
05:00 1016 30 845 24.95 13.8 56.9 57 5.4 41.7
05:05 1016 30 845 24.95 13.9 57 56 5.4 41.7
05:10 1016 30 845 24.95 14 57.1 56 5.5 41.8
05:15 1016 30 845 24.95 13.9 57 57 5.5 42
05:20 1016 30 845 24.95 14 57.2 56 5.3 41.6
05:25 1016 30 845 24.95 14 57.3 56 5.4 41.7
05:30 1016 30 845 24.95 13.9 57 57 5.6 42.1
05:35 1016 30 845 24.95 13.9 57.1 56 5.4 41.8
05:40 1016 30 845 24.95 14.1 57.4 55 5.4 41.7
05:45 1016 30 845 24.95 14.5 58 54 5.4 41.8
05:50 1016 30 845 24.95 14.7 58.4 54 5.5 41.8
05:55 1016 30 845 24.95 14.7 58.5 55 5.8 42.4
06:00 1016 30 845 24.95 14.9 58.8 55 6.1 42.9
06:05 1016 30 845 24.95 14.7 58.5 55 6 42.8
06:10 1016 30 845 24.95 14.5 58.1 58 6.4 43.4
06:15 1016 30 845 24.95 14.4 58 58 6.5 43.6
06:20 1016 30 845 24.95 14.5 58.1 59 6.6 43.9
06:25 1016 30 845 24.95 14.5 58.1 59 6.7 44.1
06:30 1016 30 845 24.95 14.3 57.7 61 6.9 44.4
06:35 1016 30 845 24.95 14.3 57.7 61 7 44.6
06:40 1016 30 845 24.95 14.3 57.7 62 7.3 45.1
06:45 1016 30 845 24.95 14.3 57.8 62 7.2 45
06:50 1016 30 845 24.95 14.8 58.6 60 7.3 45.1
06:55 1016 30 845 24.95 15.2 59.3 59 7.3 45.1
07:00 1016 30 845 24.95 15.5 60 57 7.2 45
07:05 1016 30 845 24.95 16.1 61 55 7.2 45
07:10 1016 30 845 24.95 16.9 62.5 53 7.4 45.3
07:15 1016 30 845 24.95 17.3 63.1 52 7.6 45.6
07:20 1016 30 845 24.95 17.8 64 51 7.5 45.5
07:25 1016 30 845 24.95 17.8 64 51 7.6 45.7
07:30 1016 30 845 24.95 17.7 63.9 50 7.4 45.3
07:35 1016 30 845 24.95 17.8 64 50 7.5 45.5
07:40 1016 30 845 24.95 17.9 64.2 51 7.7 45.9
07:45 1016 30 845 24.95 17.9 64.2 50 7.4 45.4
07:50 1016 30 845 24.95 17.5 63.5 55 8.6 47.5
07:55 1016 30 845 24.95 17.4 63.2 53 7.8 46.1
08:00 1016 30 845 24.95 17.3 63.1 57 8.7 47.6
08:05 1016 30 845 24.95 16.7 62 57 8.1 46.7
08:10 1016 30 845 24.95 16.9 62.4 57 8.4 47
08:15 1016 30 845 24.95 17.2 62.9 54 8 46.4
08:20 1016 30 845 24.95 18.2 64.8 50 7.9 46.2
08:25 1016 30 845 24.95 18.6 65.4 49 7.9 46.2
08:30 1016 30 845 24.95 18.9 66.1 48 7.8 46
08:35 1016 30 845 24.95 19.6 67.2 45 7.5 45.5
08:40 1016 30 845 24.95 20 67.9 41 6.5 43.7
08:45 1016 30 845 24.95 20.3 68.5 41 6.9 44.5
08:50 1016 30 845 24.95 20.6 69.2 40 6.6 43.8
08:55 1016 30 845 24.95 20.9 69.6 42 7.7 45.9
09:00 1016 30 846 24.98 20.5 68.8 43 7.7 45.9
09:05 1016 30 846 24.98 20 67.9 47 8.3 47
09:10 1017 30.03 846 24.98 19.9 67.8 45 7.7 45.9
09:15 1017 30.03 846 24.98 20 67.9 47 8.4 47.2
09:20 1017 30.03 846 24.98 19 66.2 50 8.4 47.1
09:25 1017 30.03 846 24.98 18.7 65.7 49 7.8 46
09:30 1017 30.03 846 24.98 18.4 65.2 52 8.4 47.1
09:35 1017 30.03 846 24.98 18.4 65.1 48 7.2 44.9
09:40 1016 30 846 24.98 18.6 65.5 47 7.3 45.2
09:45 1016 30 845 24.95 18.1 64.6 52 8.3 47
09:50 1016 30 845 24.95 18.4 65 51 8.3 46.9
09:55 1016 30 845 24.95 18.9 66 50 8.4 47.2
10:00 1016 30 845 24.95 18.3 65 52 8.5 47.3
10:05 1016 30 845 24.95 18.7 65.7 51 8.5 47.3
10:10 1016 30 845 24.95 18.7 65.7 47 7.4 45.4
10:15 1016 30 845 24.95 18.2 64.8 48 7.2 44.9
10:20 1016 30 845 24.95 18.2 64.8 54 8.8 47.8
10:25 1016 30 845 24.95 18.4 65.1 53 8.7 47.6
10:30 1016 30 845 24.95 19 66.2 49 8.3 47
10:35 1016 30 845 24.95 19.3 66.7 46 7.5 45.4
10:40 1015 29.97 845 24.95 20.1 68.1 44 7.5 45.6
10:45 1015 29.97 845 24.95 20.6 69.1 42 7.4 45.2
10:50 1015 29.97 844 24.92 20.7 69.3 42 7.4 45.3
10:55 1015 29.97 844 24.92 20.7 69.3 43 7.9 46.2
11:00 1015 29.97 844 24.92 21 69.8 38 6.2 43.2
11:05 1015 29.97 844 24.92 21.6 70.8 37 6.5 43.7
11:10 1015 29.97 844 24.92 21.4 70.5 39 7.1 44.8
11:15 1015 29.97 845 24.95 22.3 72.2 36 6.8 44.2
11:20 1015 29.97 845 24.95 22.4 72.4 34 5.8 42.4
11:25 1015 29.97 845 24.95 23.6 74.4 33 6.6 43.9
11:30 1016 30 845 24.95 24.2 75.6 34 7.5 45.5
11:35 1016 30 845 24.95 23.6 74.5 36 7.9 46.2
11:40 1016 30 845 24.95 23.2 73.7 37 7.9 46.3
11:45 1016 30 845 24.95 22.2 71.9 44 9.4 48.8
11:50 1016 30 845 24.95 21.5 70.7 45 9.3 48.7
11:55 1016 30 845 24.95 21.6 70.9 43 8.8 47.9
12:00 1016 30 845 24.95 22.3 72.2 41 8.6 47.5
12:05 1016 30 845 24.95 22.5 72.4 42 9.1 48.3
12:10 1016 30 845 24.95 22.3 72.1 43 9.2 48.5
12:15 1016 30 845 24.95 21.7 71.1 46 9.9 49.7
12:20 1016 30 845 24.95 22.1 71.8 43 9 48.2
12:25 1015 29.97 845 24.95 22.5 72.5 38 7.8 46
12:30 1015 29.97 845 24.95 22.9 73.3 38 8.2 46.7
12:35 1015 29.97 844 24.92 22.7 72.8 36 7.1 44.8
12:40 1015 29.97 844 24.92 23 73.4 37 7.8 46
12:45 1015 29.97 844 24.92 23.2 73.8 37 8 46.5
12:50 1015 29.97 844 24.92 22.8 73 36 7.2 45
12:55 1015 29.97 844 24.92 23.1 73.6 27 3.4 38.1
13:00 1015 29.97 844 24.92 22.9 73.2 31 5.2 41.4
13:05 1014 29.94 844 24.92 24.1 75.5 32 6.6 44
13:10 1014 29.94 843 24.89 23.7 74.6 33 6.6 43.8
13:15 1014 29.94 843 24.89 23.1 73.6 32 5.6 42.1
13:20 1014 29.94 843 24.89 22.7 72.8 33 5.7 42.2
13:25 1014 29.94 843 24.89 23.7 74.6 31 5.9 42.7
13:30 1014 29.94 843 24.89 23.8 74.9 32 6.2 43.2
13:35 1013 29.91 843 24.89 24.4 75.9 31 6.6 43.9
13:40 1013 29.91 842 24.86 23.5 74.3 34 6.8 44.3
13:45 1013 29.91 842 24.86 23.2 73.8 33 6.2 43.2
13:50 1013 29.91 842 24.86 23.2 73.8 33 6.3 43.3
13:55 1013 29.91 842 24.86 24.1 75.3 33 6.9 44.4
14:00 1012 29.88 841 24.83 24.1 75.4 33 7.2 44.9
14:05 1012 29.88 841 24.83 24.8 76.6 30 6.3 43.3
14:10 1012 29.88 841 24.83 24.4 75.9 32 7 44.7
14:15 1012 29.88 841 24.83 24.2 75.5 33 6.9 44.4
14:20 1012 29.88 841 24.83 24.3 75.7 33 7.2 44.9
14:25 1012 29.88 841 24.83 24.7 76.4 30 6.4 43.5
14:30 1012 29.88 841 24.83 26 78.8 30 7.2 45
14:35 1012 29.88 841 24.83 25.6 78.1 31 7.4 45.4
14:40 1012 29.88 841 24.83 25.3 77.5 34 8.4 47.1
14:45 1012 29.88 841 24.83 24.8 76.6 32 7.1 44.8
14:50 1012 29.88 841 24.83 25 76.9 35 8.6 47.5
14:55 1012 29.88 841 24.83 24.4 75.9 36 8.4 47.1
15:00 1012 29.88 841 24.83 24.7 76.4 38 9.5 49.1
15:05 1012 29.88 842 24.86 24 75.1 40 9.6 49.3
15:10 1013 29.91 842 24.86 23.1 73.6 43 10.1 50.3
15:15 1013 29.91 842 24.86 20.2 68.4 46 8.5 47.2
15:20 1013 29.91 842 24.86 17.7 63.8 49 6.8 44.3
15:25 1014 29.94 844 24.92 16.8 62.2 54 7.4 45.4
15:30 1015 29.97 844 24.92 16 60.8 64 9.2 48.6
15:35 1015 29.97 844 24.92 15.2 59.3 71 9.9 49.9
15:40 1016 30 845 24.95 14 57.2 74 9.4 48.9
15:45 1016 30 845 24.95 13.1 55.5 77 9.1 48.4
15:50 1016 30 846 24.98 12.4 54.3 83 9.6 49.3
15:55 1017 30.03 846 24.98 12.6 54.7 76 8.6 47.5
16:00 1016 30 846 24.98 13.2 55.7 76 9 48.2
16:05 1016 30 846 24.98 13.5 56.4 74 9.1 48.4
16:10 1016 30 845 24.95 13.7 56.7 77 9.8 49.6
16:15 1016 30 846 24.98 13.5 56.2 79 9.9 49.9
16:20 1017 30.03 846 24.98 13.5 56.2 75 9.1 48.4
16:25 1017 30.03 846 24.98 13.4 56.1 77 9.5 49.2
16:30 1016 30 846 24.98 13.7 56.7 78 10 50
16:35 1016 30 846 24.98 14.4 58 72 9.5 49.1
16:40 1017 30.03 846 24.98 14.4 58 74 9.8 49.6
16:45 1017 30.03 846 24.98 14.5 58 75 10.2 50.3
16:50 1017 30.03 846 24.98 14.2 57.6 75 9.9 49.8
16:55 1017 30.03 846 24.98 13.7 56.7 75 9.4 49
17:00 1017 30.03 846 24.98 13.8 56.9 75 9.5 49.1
17:05 1017 30.03 846 24.98 14.3 57.7 75 10.1 50.1
17:10 1017 30.03 846 24.98 14.7 58.4 75 10.3 50.6
17:15 1017 30.03 846 24.98 14.8 58.7 75 10.4 50.7
17:20 1017 30.03 846 24.98 14.9 58.8 76 10.7 51.3
17:25 1017 30.03 846 24.98 15 58.9 73 10.3 50.5
17:30 1017 30.03 846 24.98 14.9 58.8 75 10.5 50.9
17:35 1017 30.03 846 24.98 14.8 58.7 74 10.2 50.3
17:40 1017 30.03 846 24.98 14.9 58.7 74 10.2 50.4
17:45 1017 30.03 846 24.98 14.9 58.7 74 10.2 50.4
17:50 1017 30.03 846 24.98 14.9 58.7 73 10.2 50.3
17:55 1017 30.03 846 24.98 14.9 58.7 73 10 50.1
18:00 1016 30 846 24.98 14.9 58.8 71 9.8 49.7
18:05 1016 30 845 24.95 15 58.9 72 10 50
18:10 1016 30 845 24.95 14.9 58.7 75 10.5 50.9
18:15 1016 30 845 24.95 14.3 57.7 77 10.4 50.7
18:20 1016 30 845 24.95 14 57.2 77 10.1 50.1
18:25 1016 30 845 24.95 14.1 57.3 76 10 50
18:30 1016 30 845 24.95 14.2 57.5 76 9.9 49.9
18:35 1016 30 846 24.98 14.1 57.4 75 9.8 49.7
18:40 1016 30 846 24.98 14 57.2 77 10 50
18:45 1016 30 845 24.95 14 57.2 77 10.1 50.2
18:50 1016 30 845 24.95 14 57.1 77 10 50
18:55 1016 30 845 24.95 14 57.1 76 9.9 49.8
19:00 1016 30 845 24.95 13.9 57 75 9.5 49.2
19:05 1016 30 845 24.95 13.8 56.9 76 9.7 49.5
19:10 1016 30 845 24.95 13.7 56.6 76 9.6 49.2
19:15 1016 30 845 24.95 13.6 56.5 76 9.5 49.2
19:20 1015 29.97 845 24.95 13.6 56.5 73 9 48.1
19:25 1015 29.97 844 24.92 13.9 57.1 75 9.5 49.2
19:30 1015 29.97 844 24.92 13.7 56.6 73 9 48.1
19:35 1015 29.97 844 24.92 13.7 56.6 74 9.2 48.5
19:40 1015 29.97 844 24.92 13.6 56.5 71 8.5 47.4
19:45 1015 29.97 844 24.92 13.8 56.8 70 8.5 47.3
19:50 1015 29.97 844 24.92 13.8 56.8 70 8.5 47.3
19:55 1015 29.97 844 24.92 13.8 56.9 69 8.2 46.8
20:00 1015 29.97 844 24.92 13.8 56.9 69 8.2 46.8
20:05 1015 29.97 844 24.92 13.7 56.7 69 8.3 46.9
20:10 1015 29.97 844 24.92 13.6 56.5 70 8.2 46.8
20:15 1015 29.97 844 24.92 13.6 56.5 69 8.2 46.7
20:20 1015 29.97 844 24.92 13.5 56.4 70 8.1 46.7
20:25 1015 29.97 845 24.95 13.5 56.2 70 8.1 46.5
20:30 1015 29.97 845 24.95 13.4 56.1 69 7.9 46.3
20:35 1015 29.97 845 24.95 13.4 56.1 68 7.7 45.9
20:40 1015 29.97 845 24.95 13.4 56.2 69 7.9 46.2
20:45 1015 29.97 845 24.95 13.4 56 68 7.7 45.8
20:50 1015 29.97 845 24.95 13.3 55.9 69 7.7 45.8
20:55 1015 29.97 845 24.95 13.2 55.8 69 7.7 45.9
21:00 1016 30 845 24.95 13 55.4 70 7.7 45.9
21:05 1016 30 845 24.95 12.9 55.1 69 7.4 45.4
21:10 1016 30 845 24.95 12.9 55.3 69 7.4 45.3
21:15 1016 30 845 24.95 13 55.3 70 7.7 45.8
21:20 1016 30 845 24.95 12.8 55.1 71 7.7 45.8
21:25 1016 30 845 24.95 12.6 54.6 73 7.9 46.3
21:30 1016 30 845 24.95 12.3 54.1 74 7.9 46.2
21:35 1016 30 845 24.95 12.2 53.9 75 7.8 46.1
21:40 1016 30 845 24.95 12 53.7 75 7.9 46.2
21:45 1016 30 845 24.95 12.1 53.8 71 7 44.7
21:50 1015 29.97 845 24.95 12.5 54.6 70 7.2 45
21:55 1015 29.97 845 24.95 12.7 54.9 69 7.2 45
22:00 1015 29.97 845 24.95 12.8 55 69 7.4 45.3
22:05 1015 29.97 845 24.95 12.6 54.7 70 7.3 45.1
22:10 1016 30 845 24.95 12.5 54.6 67 6.7 44.1
22:15 1016 30 845 24.95 12.6 54.8 69 7.1 44.9
22:20 1016 30 845 24.95 12.4 54.3 71 7.3 45.1
22:25 1016 30 845 24.95 11.9 53.4 74 7.3 45.2
22:30 1016 30 845 24.95 11.5 52.7 75 7.2 45
22:35 1016 30 845 24.95 11.5 52.6 75 7.2 44.9
22:40 1016 30 845 24.95 11.4 52.5 75 7.1 44.7
22:45 1016 30 845 24.95 11.3 52.3 75 7 44.6
22:50 1016 30 845 24.95 11.1 52.1 76 7.1 44.8
22:55 1016 30 845 24.95 10.9 51.6 77 7 44.7
23:00 1016 30 845 24.95 10.8 51.5 77 6.9 44.5
23:05 1016 30 845 24.95 10.9 51.5 76 6.9 44.3
23:10 1016 30 845 24.95 10.7 51.3 76 6.7 44
23:15 1016 30 845 24.95 10.7 51.2 76 6.6 43.8
23:20 1016 30 845 24.95 10.7 51.2 75 6.3 43.4
23:25 1016 30 845 24.95 10.9 51.6 74 6.4 43.6
23:30 1016 30 845 24.95 10.8 51.4 74 6.4 43.6
23:35 1016 30 845 24.95 10.6 51 76 6.5 43.8
23:40 1016 30 845 24.95 10.2 50.4 77 6.4 43.5
23:45 1016 30 845 24.95 10 49.9 77 6.1 42.9
23:50 1016 30 845 24.95 10 50.1 75 5.9 42.6
23:55 1016 30 845 24.95 10.1 50.2 76 6 42.8
24:00 1016 30 845 24.95 10 50.1 76 6.1 42.9